Ellenburg Depot, New York
Current Conditions -  °F | °C
As of 12:53 AM on Sunday 26 Oct 2014 (Local Time) from KPBG Reporting Station
Light Rain Light Rain  
Wind Chill: 50°   Ceiling: 4000
Heat Index: 50°   Visibility: 10mi
Dew Point: 45°   Wind: 12mph
Humidity: 83%   Direction: 330°NNW
Pressure: 29.44"   Gusts: 18mph
Location:  44.91°N, 73.8°W
Report Text: KPBG 260453Z AUTO 33010G16KT 10SM -RA FEW024 SCT030 BKN040 10/07 A2944 RMK AO2 RAB42 SLP970 P0001 T01000072 401330028
Loading
Personal Weather Stations






























Interactive Weather Map
Tropical Storm Tracking
New forecast layout! Learn more

10-Day Weather Forecast

Advertisements
Track Severe Weather on mobile